createdAt,value
2023-08-11T00:00:04.520Z,100.00
2023-08-11T00:02:41.636Z,100.00
2023-08-11T00:05:09.745Z,100.00
2023-08-11T00:07:38.036Z,100.00
2023-08-11T00:10:06.924Z,100.00
2023-08-11T00:12:34.970Z,100.00
2023-08-11T00:15:03.898Z,100.00
2023-08-11T00:17:33.105Z,100.00
2023-08-11T00:20:05.110Z,100.00
2023-08-11T00:22:33.392Z,100.00
2023-08-11T00:25:01.360Z,100.00
2023-08-11T00:27:29.349Z,100.00
2023-08-11T00:29:59.080Z,100.00
2023-08-11T00:32:27.074Z,100.00
2023-08-11T00:34:55.046Z,100.00
2023-08-11T00:37:24.468Z,100.00
2023-08-11T00:39:52.848Z,100.00
2023-08-11T00:42:21.510Z,100.00
2023-08-11T00:44:49.534Z,100.00
2023-08-11T00:47:18.053Z,100.00
2023-08-11T00:49:46.086Z,100.00
2023-08-11T00:52:14.176Z,100.00
2023-08-11T00:54:45.566Z,100.00
2023-08-11T00:57:15.541Z,100.00
2023-08-11T00:59:43.600Z,100.00
2023-08-11T01:02:12.522Z,100.00
2023-08-11T01:04:42.106Z,100.00
2023-08-11T01:07:19.807Z,100.00
2023-08-11T01:09:56.516Z,100.00
2023-08-11T01:12:30.561Z,100.00
2023-08-11T01:15:05.882Z,100.00
2023-08-11T01:17:34.966Z,100.00
2023-08-11T01:20:11.835Z,100.00
2023-08-11T01:22:45.183Z,100.00
2023-08-11T01:25:16.409Z,100.00
2023-08-11T01:27:45.929Z,100.00
2023-08-11T01:30:15.768Z,100.00
2023-08-11T01:32:44.032Z,100.00
2023-08-11T01:35:14.046Z,100.00
2023-08-11T01:37:45.705Z,100.00
2023-08-11T01:40:15.798Z,100.00
2023-08-11T01:42:53.733Z,100.00
2023-08-11T01:45:25.058Z,100.00
2023-08-11T01:47:53.992Z,100.00
2023-08-11T01:50:23.004Z,100.00
2023-08-11T01:52:51.294Z,100.00
2023-08-11T01:55:20.955Z,100.00
2023-08-11T01:57:58.637Z,100.00
2023-08-11T02:00:29.097Z,100.00
2023-08-11T02:02:59.130Z,100.00
2023-08-11T02:05:27.871Z,100.00
2023-08-11T02:07:56.809Z,100.00
2023-08-11T02:10:26.688Z,100.00
2023-08-11T02:12:54.857Z,100.00
2023-08-11T02:15:22.983Z,100.00
2023-08-11T02:17:51.023Z,100.00
2023-08-11T02:20:23.314Z,100.00
2023-08-11T02:22:53.318Z,100.00
2023-08-11T02:25:23.057Z,100.00
2023-08-11T02:27:53.508Z,100.00
2023-08-11T02:30:23.207Z,100.00
2023-08-11T02:32:51.997Z,100.00
2023-08-11T02:35:20.185Z,100.00
2023-08-11T02:37:50.174Z,100.00
2023-08-11T02:40:21.208Z,100.00
2023-08-11T02:42:55.981Z,100.00
2023-08-11T02:45:23.996Z,100.00
2023-08-11T02:47:53.214Z,100.00
2023-08-11T02:50:21.651Z,100.00
2023-08-11T02:52:49.711Z,100.00
2023-08-11T02:55:17.722Z,100.00
2023-08-11T02:57:45.733Z,100.00
2023-08-11T03:00:16.133Z,100.00
2023-08-11T03:02:47.031Z,100.00
2023-08-11T03:05:17.129Z,100.00
2023-08-11T03:07:46.460Z,100.00
2023-08-11T03:10:14.812Z,100.00
2023-08-11T03:12:45.088Z,100.00
2023-08-11T03:15:14.721Z,100.00
2023-08-11T03:17:45.075Z,100.00
2023-08-11T03:20:14.728Z,100.00
2023-08-11T03:22:45.980Z,100.00
2023-08-11T03:25:17.602Z,100.00
2023-08-11T03:27:45.599Z,100.00
2023-08-11T03:30:20.977Z,100.00
2023-08-11T03:32:54.334Z,100.00
2023-08-11T03:35:27.993Z,100.00
2023-08-11T03:37:56.100Z,100.00
2023-08-11T03:40:24.075Z,100.00
2023-08-11T03:42:54.430Z,100.00
2023-08-11T03:45:22.919Z,100.00
2023-08-11T03:47:51.090Z,100.00
2023-08-11T03:50:27.062Z,100.00
2023-08-11T03:52:55.256Z,100.00
2023-08-11T03:55:28.474Z,100.00
2023-08-11T03:57:58.140Z,100.00
2023-08-11T04:00:29.449Z,100.00
2023-08-11T04:03:10.385Z,100.00
2023-08-11T04:05:39.754Z,100.00
2023-08-11T04:08:07.794Z,100.00
2023-08-11T04:10:37.021Z,100.00
2023-08-11T04:13:05.590Z,100.00
2023-08-11T04:15:33.517Z,100.00
2023-08-11T04:18:01.708Z,100.00
2023-08-11T04:20:30.437Z,100.00
2023-08-11T04:22:59.766Z,100.00
2023-08-11T04:25:27.886Z,100.00
2023-08-11T04:27:56.809Z,100.00
2023-08-11T04:30:25.301Z,100.00
2023-08-11T04:32:54.891Z,100.00
2023-08-11T04:35:22.983Z,100.00
2023-08-11T04:37:51.653Z,100.00
2023-08-11T04:40:22.496Z,100.00
2023-08-11T04:42:52.490Z,100.00
2023-08-11T04:45:25.318Z,100.00
2023-08-11T04:47:53.407Z,100.00
2023-08-11T04:50:22.620Z,100.00
2023-08-11T04:52:55.360Z,100.00
2023-08-11T04:55:24.720Z,100.00
2023-08-11T04:57:52.737Z,100.00
2023-08-11T05:00:21.667Z,100.00
2023-08-11T05:02:52.498Z,100.00
2023-08-11T05:05:21.092Z,100.00
2023-08-11T05:07:49.250Z,100.00
2023-08-11T05:10:19.919Z,100.00
2023-08-11T05:12:50.280Z,100.00
2023-08-11T05:15:19.163Z,100.00
2023-08-11T05:17:47.492Z,100.00
2023-08-11T05:20:16.240Z,100.00
2023-08-11T05:22:44.948Z,100.00
2023-08-11T05:25:13.048Z,100.00
2023-08-11T05:27:41.210Z,100.00
2023-08-11T05:30:14.339Z,100.00
2023-08-11T05:32:42.628Z,100.00
2023-08-11T05:35:10.934Z,100.00
2023-08-11T05:37:42.289Z,100.00
2023-08-11T05:40:11.234Z,100.00
2023-08-11T05:42:40.217Z,100.00
2023-08-11T05:45:11.056Z,100.00
2023-08-11T05:47:39.173Z,100.00
2023-08-11T05:50:08.385Z,100.00
2023-08-11T05:52:36.452Z,100.00
2023-08-11T05:55:04.532Z,100.00
2023-08-11T05:57:32.492Z,100.00
2023-08-11T06:00:00.692Z,100.00
2023-08-11T06:02:30.048Z,100.00
2023-08-11T06:04:57.998Z,100.00
2023-08-11T06:07:26.207Z,100.00
2023-08-11T06:09:54.160Z,100.00
2023-08-11T06:12:22.165Z,100.00
2023-08-11T06:14:50.074Z,100.00
2023-08-11T06:17:18.036Z,100.00
2023-08-11T06:19:47.367Z,100.00
2023-08-11T06:22:15.619Z,100.00
2023-08-11T06:24:43.591Z,100.00
2023-08-11T06:27:12.210Z,100.00
2023-08-11T06:29:40.197Z,100.00
2023-08-11T06:32:08.181Z,100.00
2023-08-11T06:34:38.306Z,100.00
2023-08-11T06:37:07.948Z,100.00
2023-08-11T06:39:36.124Z,100.00
2023-08-11T06:42:04.130Z,100.00
2023-08-11T06:44:58.403Z,100.00
2023-08-11T06:47:26.367Z,100.00
2023-08-11T06:49:54.522Z,100.00
2023-08-11T06:52:23.960Z,100.00
2023-08-11T06:54:52.321Z,100.00
2023-08-11T06:57:22.162Z,100.00
2023-08-11T06:59:51.329Z,100.00
2023-08-11T07:02:19.380Z,100.00
2023-08-11T07:04:47.908Z,100.00
2023-08-11T07:07:22.076Z,100.00
2023-08-11T07:09:51.291Z,100.00
2023-08-11T07:12:19.261Z,100.00
2023-08-11T07:14:47.267Z,100.00
2023-08-11T07:17:15.234Z,100.00
2023-08-11T07:19:43.187Z,100.00
2023-08-11T07:22:11.209Z,100.00
2023-08-11T07:24:39.191Z,100.00
2023-08-11T07:27:09.157Z,100.00
2023-08-11T07:29:37.236Z,100.00
2023-08-11T07:32:05.974Z,98.22
2023-08-11T07:34:33.901Z,93.65
2023-08-11T07:37:01.888Z,97.34
2023-08-11T07:39:30.013Z,96.11
2023-08-11T07:42:04.110Z,93.79
2023-08-11T07:44:34.336Z,94.26
2023-08-11T07:47:03.782Z,91.44
2023-08-11T07:49:32.493Z,92.25
2023-08-11T07:52:00.594Z,87.37
2023-08-11T07:54:28.690Z,83.89
2023-08-11T07:56:56.747Z,83.03
2023-08-11T07:59:24.781Z,82.27
2023-08-11T08:01:54.306Z,81.17
2023-08-11T08:04:22.454Z,81.43
2023-08-11T08:06:50.482Z,77.90
2023-08-11T08:09:19.476Z,78.97
2023-08-11T08:11:48.594Z,78.62
2023-08-11T08:14:16.869Z,75.70
2023-08-11T08:16:46.193Z,77.01
2023-08-11T08:19:18.141Z,75.72
2023-08-11T08:21:47.640Z,75.69
2023-08-11T08:24:16.334Z,76.64
2023-08-11T08:26:48.922Z,72.71
2023-08-11T08:29:17.084Z,72.00
2023-08-11T08:31:45.218Z,71.15
2023-08-11T08:34:13.205Z,68.85
2023-08-11T08:36:42.541Z,68.60
2023-08-11T08:39:10.516Z,68.43
2023-08-11T08:41:40.639Z,68.74
2023-08-11T08:44:08.675Z,68.09
2023-08-11T08:46:39.489Z,66.82
2023-08-11T08:49:16.023Z,64.02
2023-08-11T08:51:46.608Z,60.77
2023-08-11T08:54:14.717Z,60.62
2023-08-11T08:56:42.667Z,63.47
2023-08-11T08:59:10.687Z,64.73
2023-08-11T09:01:39.848Z,63.60
2023-08-11T09:04:09.232Z,63.50
2023-08-11T09:06:37.491Z,62.99
2023-08-11T09:09:08.944Z,62.53
2023-08-11T09:11:39.191Z,61.77
2023-08-11T09:14:09.072Z,60.97
2023-08-11T09:16:42.092Z,59.66
2023-08-11T09:19:14.299Z,59.12
2023-08-11T09:21:44.398Z,59.29
2023-08-11T09:24:14.970Z,59.29
2023-08-11T09:26:44.745Z,59.47
2023-08-11T09:29:13.476Z,56.25
2023-08-11T09:31:42.659Z,56.55
2023-08-11T09:34:16.125Z,56.94
2023-08-11T09:36:45.278Z,55.43
2023-08-11T09:39:14.915Z,54.96
2023-08-11T09:41:44.149Z,56.09
2023-08-11T09:44:12.921Z,54.89
2023-08-11T09:46:42.135Z,55.16
2023-08-11T09:49:10.923Z,54.84
2023-08-11T09:51:40.379Z,55.50
2023-08-11T09:54:10.392Z,54.00
2023-08-11T09:56:42.197Z,54.38
2023-08-11T09:59:13.081Z,55.50
2023-08-11T10:01:43.952Z,55.86
2023-08-11T10:04:17.622Z,53.88
2023-08-11T10:06:52.648Z,54.22
2023-08-11T10:09:24.784Z,53.97
2023-08-11T10:11:58.984Z,54.64
2023-08-11T10:14:28.667Z,54.66
2023-08-11T10:16:57.386Z,55.63
2023-08-11T10:19:26.316Z,53.69
2023-08-11T10:21:54.504Z,53.05
2023-08-11T10:24:22.895Z,52.06
2023-08-11T10:26:51.507Z,51.76
2023-08-11T10:29:22.993Z,50.69
2023-08-11T10:31:59.762Z,49.77
2023-08-11T10:34:29.317Z,50.10
2023-08-11T10:36:58.326Z,50.88
2023-08-11T10:39:27.010Z,50.63
2023-08-11T10:41:59.407Z,50.21
2023-08-11T10:44:31.769Z,49.40
2023-08-11T10:47:01.915Z,48.62
2023-08-11T10:49:35.115Z,49.17
2023-08-11T10:52:05.115Z,49.41
2023-08-11T10:54:33.997Z,48.63
2023-08-11T10:57:03.484Z,49.34
2023-08-11T10:59:35.655Z,47.02
2023-08-11T11:02:15.860Z,47.26
2023-08-11T11:04:45.174Z,47.66
2023-08-11T11:07:15.459Z,46.64
2023-08-11T11:09:43.762Z,46.69
2023-08-11T11:12:12.455Z,46.56
2023-08-11T11:14:42.516Z,45.75
2023-08-11T11:17:10.979Z,44.80
2023-08-11T11:19:40.439Z,42.55
2023-08-11T11:22:09.205Z,40.65
2023-08-11T11:24:39.501Z,42.90
2023-08-11T11:27:08.627Z,38.11
2023-08-11T11:29:39.208Z,37.45
2023-08-11T11:32:09.766Z,36.42
2023-08-11T11:34:40.657Z,35.17
2023-08-11T11:37:09.462Z,37.36
2023-08-11T11:39:37.495Z,38.52
2023-08-11T11:42:08.433Z,35.38
2023-08-11T11:44:37.483Z,37.82
2023-08-11T11:47:06.645Z,35.62
2023-08-11T11:49:36.660Z,36.09
2023-08-11T11:52:05.060Z,36.58
2023-08-11T11:54:35.129Z,36.80
2023-08-11T11:57:09.047Z,34.75
2023-08-11T11:59:38.742Z,34.93
2023-08-11T12:02:07.149Z,35.06
2023-08-11T12:04:37.293Z,35.43
2023-08-11T12:07:06.717Z,34.87
2023-08-11T12:09:34.953Z,34.98
2023-08-11T12:12:06.883Z,32.82
2023-08-11T12:14:35.916Z,32.00
2023-08-11T12:17:10.652Z,33.26
2023-08-11T12:19:40.873Z,36.09
2023-08-11T12:22:09.774Z,36.03
2023-08-11T12:24:37.787Z,36.13
2023-08-11T12:27:06.038Z,34.40
2023-08-11T12:29:34.842Z,35.36
2023-08-11T12:32:04.231Z,35.40
2023-08-11T12:34:32.367Z,35.63
2023-08-11T12:37:01.847Z,36.08
2023-08-11T12:39:31.578Z,37.44
2023-08-11T12:41:59.819Z,37.92
2023-08-11T12:44:27.805Z,38.55
2023-08-11T12:46:55.757Z,39.07
2023-08-11T12:49:23.843Z,39.83
2023-08-11T12:51:52.457Z,38.64
2023-08-11T12:54:22.940Z,38.76
2023-08-11T12:56:50.976Z,39.45
2023-08-11T12:59:19.115Z,38.30
2023-08-11T13:01:47.089Z,37.25
2023-08-11T13:04:15.082Z,34.52
2023-08-11T13:06:43.044Z,33.16
2023-08-11T13:09:12.898Z,34.08
2023-08-11T13:11:42.919Z,36.20
2023-08-11T13:14:11.535Z,35.24
2023-08-11T13:16:40.009Z,34.87
2023-08-11T13:19:08.041Z,35.13
2023-08-11T13:21:35.985Z,35.77
2023-08-11T13:24:04.473Z,36.20
2023-08-11T13:26:32.653Z,39.16
2023-08-11T13:29:01.927Z,38.87
2023-08-11T13:31:30.233Z,40.68
2023-08-11T13:33:59.452Z,41.84
2023-08-11T13:36:27.865Z,41.72
2023-08-11T13:38:57.461Z,43.45
2023-08-11T13:41:25.634Z,42.93
2023-08-11T13:43:53.793Z,44.42
2023-08-11T13:46:23.386Z,44.72
2023-08-11T13:48:51.443Z,43.43
2023-08-11T13:51:19.503Z,43.16
2023-08-11T13:53:50.785Z,42.53
2023-08-11T13:56:19.012Z,44.34
2023-08-11T13:58:56.581Z,43.10
2023-08-11T14:01:26.067Z,43.87
2023-08-11T14:03:54.240Z,44.77
2023-08-11T14:06:22.398Z,44.69
2023-08-11T14:08:55.042Z,43.98
2023-08-11T14:11:29.035Z,42.32
2023-08-11T14:14:00.546Z,45.06
2023-08-11T14:16:30.250Z,44.00
2023-08-11T14:18:58.662Z,43.72
2023-08-11T14:21:29.833Z,43.10
2023-08-11T14:24:00.928Z,42.93
2023-08-11T14:26:29.153Z,45.01
2023-08-11T14:28:57.240Z,44.14
2023-08-11T14:31:27.781Z,45.00
2023-08-11T14:33:57.397Z,45.73
2023-08-11T14:36:25.567Z,44.42
2023-08-11T14:38:53.834Z,43.81
2023-08-11T14:41:21.849Z,44.59
2023-08-11T14:43:49.849Z,46.26
2023-08-11T14:46:18.278Z,44.55
2023-08-11T14:48:46.316Z,44.98
2023-08-11T14:51:15.690Z,44.30
2023-08-11T14:53:43.763Z,44.60
2023-08-11T14:56:13.232Z,44.52
2023-08-11T14:58:42.936Z,44.73
2023-08-11T15:01:11.029Z,43.72
2023-08-11T15:03:39.321Z,44.41
2023-08-11T15:06:12.097Z,44.78
2023-08-11T15:08:42.022Z,45.59
2023-08-11T15:11:10.668Z,45.09
2023-08-11T15:13:40.288Z,44.04
2023-08-11T15:16:08.421Z,45.05
2023-08-11T15:18:37.878Z,45.32
2023-08-11T15:21:06.073Z,44.95
2023-08-11T15:23:36.258Z,43.89
2023-08-11T15:26:10.748Z,43.55
2023-08-11T15:28:40.971Z,44.21
2023-08-11T15:31:11.440Z,45.77
2023-08-11T15:33:39.938Z,44.94
2023-08-11T15:36:08.073Z,44.28
2023-08-11T15:38:36.281Z,44.77
2023-08-11T15:41:17.045Z,45.77
2023-08-11T15:43:46.521Z,45.58
2023-08-11T15:46:14.752Z,45.20
2023-08-11T15:48:42.858Z,45.07
2023-08-11T15:51:11.206Z,45.50
2023-08-11T15:53:39.536Z,44.44
2023-08-11T15:56:07.915Z,44.25
2023-08-11T15:58:37.465Z,44.47
2023-08-11T16:01:14.711Z,45.59
2023-08-11T16:03:43.056Z,45.07
2023-08-11T16:06:12.059Z,45.08
2023-08-11T16:08:40.251Z,45.38
2023-08-11T16:11:08.486Z,45.42
2023-08-11T16:13:37.030Z,44.84
2023-08-11T16:16:05.410Z,45.88
2023-08-11T16:18:34.816Z,46.05
2023-08-11T16:21:04.002Z,45.71
2023-08-11T16:23:33.055Z,45.20
2023-08-11T16:26:04.909Z,46.14
2023-08-11T16:28:34.353Z,45.75
2023-08-11T16:31:02.569Z,46.37
2023-08-11T16:33:30.755Z,45.31
2023-08-11T16:36:00.132Z,46.32
2023-08-11T16:38:28.213Z,45.45
2023-08-11T16:40:57.103Z,45.98
2023-08-11T16:43:25.092Z,44.44
2023-08-11T16:45:53.187Z,44.60
2023-08-11T16:48:22.846Z,45.16
2023-08-11T16:50:53.655Z,44.81
2023-08-11T16:53:23.040Z,44.82
2023-08-11T16:55:51.167Z,46.06
2023-08-11T16:58:19.537Z,46.86
2023-08-11T17:00:52.009Z,46.47
2023-08-11T17:03:21.027Z,45.05
2023-08-11T17:05:49.080Z,44.98
2023-08-11T17:08:17.030Z,45.34
2023-08-11T17:10:46.721Z,47.05
2023-08-11T17:13:14.984Z,46.91
2023-08-11T17:15:43.133Z,46.81
2023-08-11T17:18:11.254Z,46.31
2023-08-11T17:20:39.473Z,46.73
2023-08-11T17:23:07.612Z,48.08
2023-08-11T17:25:35.641Z,49.14
2023-08-11T17:28:05.980Z,49.83
2023-08-11T17:30:34.065Z,50.28
2023-08-11T17:33:02.320Z,49.48
2023-08-11T17:35:30.330Z,50.35
2023-08-11T17:37:59.097Z,51.69
2023-08-11T17:40:27.145Z,51.93
2023-08-11T17:42:55.110Z,51.91
2023-08-11T17:45:24.540Z,51.32
2023-08-11T17:47:52.552Z,51.66
2023-08-11T17:50:20.609Z,52.67
2023-08-11T17:52:48.623Z,53.83
2023-08-11T17:55:16.930Z,53.77
2023-08-11T17:57:44.835Z,55.46
2023-08-11T18:00:15.051Z,53.27
2023-08-11T18:02:45.204Z,54.77
2023-08-11T18:05:13.271Z,55.65
2023-08-11T18:07:41.283Z,57.96
2023-08-11T18:10:10.396Z,60.04
2023-08-11T18:12:38.331Z,62.26
2023-08-11T18:15:08.193Z,63.07
2023-08-11T18:17:36.414Z,65.20
2023-08-11T18:20:07.212Z,67.61
2023-08-11T18:22:35.146Z,67.29
2023-08-11T18:25:03.498Z,67.70
2023-08-11T18:27:33.171Z,68.64
2023-08-11T18:30:02.285Z,69.30
2023-08-11T18:32:30.533Z,69.49
2023-08-11T18:34:58.635Z,71.55
2023-08-11T18:37:27.967Z,72.95
2023-08-11T18:39:56.805Z,75.02
2023-08-11T18:42:24.806Z,76.42
2023-08-11T18:44:52.701Z,79.31
2023-08-11T18:47:20.628Z,80.87
2023-08-11T18:49:48.679Z,83.13
2023-08-11T18:52:17.029Z,83.48
2023-08-11T18:54:47.911Z,82.05
2023-08-11T18:57:15.926Z,84.66
2023-08-11T18:59:43.880Z,85.87
2023-08-11T19:02:12.312Z,82.53
2023-08-11T19:04:40.634Z,84.50
2023-08-11T19:07:08.638Z,88.07
2023-08-11T19:09:36.830Z,90.20
2023-08-11T19:12:07.206Z,89.92
2023-08-11T19:14:35.218Z,90.36
2023-08-11T19:17:05.141Z,91.45
2023-08-11T19:19:33.166Z,93.98
2023-08-11T19:22:03.007Z,92.67
2023-08-11T19:24:31.638Z,94.93
2023-08-11T19:26:59.637Z,96.10
2023-08-11T19:29:30.369Z,96.95
2023-08-11T19:31:58.308Z,93.91
2023-08-11T19:34:26.353Z,97.83
2023-08-11T19:36:54.614Z,100.00
2023-08-11T19:39:22.602Z,100.00
2023-08-11T19:41:50.597Z,98.91
2023-08-11T19:44:18.649Z,100.00
2023-08-11T19:46:51.818Z,100.00
2023-08-11T19:49:21.592Z,99.83
2023-08-11T19:51:50.065Z,100.00
2023-08-11T19:54:18.416Z,100.00
2023-08-11T19:56:46.390Z,100.00
2023-08-11T19:59:14.381Z,100.00
2023-08-11T20:01:44.325Z,100.00
2023-08-11T20:04:16.517Z,100.00
2023-08-11T20:06:44.950Z,100.00
2023-08-11T20:09:13.269Z,100.00
2023-08-11T20:11:41.339Z,100.00
2023-08-11T20:14:09.363Z,100.00
2023-08-11T20:16:37.467Z,100.00
2023-08-11T20:19:09.711Z,100.00
2023-08-11T20:21:40.895Z,100.00
2023-08-11T20:24:08.930Z,100.00
2023-08-11T20:26:36.934Z,100.00
2023-08-11T20:29:05.526Z,100.00
2023-08-11T20:31:36.238Z,100.00
2023-08-11T20:34:04.656Z,100.00
2023-08-11T20:36:32.644Z,100.00
2023-08-11T20:39:02.002Z,100.00
2023-08-11T20:41:30.160Z,100.00
2023-08-11T20:43:58.241Z,100.00
2023-08-11T20:46:28.624Z,100.00
2023-08-11T20:48:56.572Z,100.00
2023-08-11T20:51:24.640Z,100.00
2023-08-11T20:53:52.595Z,100.00
2023-08-11T20:56:22.095Z,100.00
2023-08-11T20:58:50.129Z,100.00
2023-08-11T21:01:18.344Z,100.00
2023-08-11T21:03:48.478Z,100.00
2023-08-11T21:06:16.544Z,100.00
2023-08-11T21:08:47.580Z,100.00
2023-08-11T21:11:16.063Z,100.00
2023-08-11T21:13:46.730Z,100.00
2023-08-11T21:16:15.274Z,100.00
2023-08-11T21:18:44.611Z,100.00
2023-08-11T21:21:12.645Z,100.00
2023-08-11T21:23:40.578Z,100.00
2023-08-11T21:26:08.539Z,100.00
2023-08-11T21:28:36.479Z,100.00
2023-08-11T21:31:17.460Z,100.00
2023-08-11T21:33:46.518Z,100.00
2023-08-11T21:36:14.484Z,100.00
2023-08-11T21:38:42.404Z,100.00
2023-08-11T21:41:10.418Z,100.00
2023-08-11T21:43:38.316Z,100.00
2023-08-11T21:46:07.637Z,100.00
2023-08-11T21:48:35.681Z,100.00
2023-08-11T21:51:05.087Z,100.00
2023-08-11T21:53:33.073Z,100.00
2023-08-11T21:56:01.004Z,100.00
2023-08-11T21:58:28.912Z,100.00
2023-08-11T22:00:56.968Z,100.00
2023-08-11T22:03:26.334Z,100.00
2023-08-11T22:05:54.332Z,100.00
2023-08-11T22:08:22.331Z,100.00
2023-08-11T22:10:50.405Z,100.00
2023-08-11T22:13:18.350Z,100.00
2023-08-11T22:15:48.195Z,100.00
2023-08-11T22:18:16.288Z,100.00
2023-08-11T22:20:45.720Z,100.00
2023-08-11T22:23:13.702Z,100.00
2023-08-11T22:25:41.732Z,100.00
2023-08-11T22:28:09.799Z,100.00
2023-08-11T22:30:39.710Z,100.00
2023-08-11T22:33:07.804Z,100.00
2023-08-11T22:35:35.822Z,100.00
2023-08-11T22:38:05.434Z,100.00
2023-08-11T22:40:33.646Z,100.00
2023-08-11T22:43:05.202Z,100.00
2023-08-11T22:45:33.412Z,100.00
2023-08-11T22:48:01.475Z,100.00
2023-08-11T22:50:29.499Z,100.00
2023-08-11T22:52:57.465Z,100.00
2023-08-11T22:55:26.963Z,100.00
2023-08-11T22:57:55.143Z,100.00
2023-08-11T23:00:23.221Z,100.00
2023-08-11T23:02:51.249Z,100.00
2023-08-11T23:05:19.243Z,100.00
2023-08-11T23:07:47.273Z,100.00
2023-08-11T23:10:15.294Z,100.00
2023-08-11T23:12:44.652Z,100.00
2023-08-11T23:15:12.730Z,100.00
2023-08-11T23:17:40.955Z,100.00
2023-08-11T23:20:10.523Z,100.00
2023-08-11T23:22:38.549Z,100.00
2023-08-11T23:25:07.964Z,100.00
2023-08-11T23:27:35.929Z,100.00
2023-08-11T23:30:06.446Z,100.00
2023-08-11T23:32:35.080Z,100.00
2023-08-11T23:35:02.794Z,100.00
2023-08-11T23:37:30.750Z,100.00
2023-08-11T23:39:59.215Z,100.00
2023-08-11T23:42:28.211Z,100.00
2023-08-11T23:44:56.294Z,100.00
2023-08-11T23:47:25.714Z,100.00
2023-08-11T23:49:54.156Z,100.00
2023-08-11T23:52:24.329Z,100.00
2023-08-11T23:54:54.278Z,100.00
2023-08-11T23:57:23.074Z,100.00
2023-08-11T23:59:51.208Z,100.00
